Главная страница
METAR-TAF:

METAR-TAF

Аэропорты :

Киль, Германия

широта: 54-23N, долгота: 010-10E, высота над уровнем моря: 31 м

Текущие метеонаблюдения

Эта сводка был подготовлена 26 минут назад, в 21:50 UTC
Ветер 11 Узел от западный
Температура 6°C
Влажность 81%
Давление 1014 hPa
Видимость 10 км и более

METAR: EDHK 072150Z AUTO 27011KT 9999 // SCT027/// OVC039/// 06/03 Q1014

Время: 00:16 (22:16 UTC)

Прогноз

Эта сводка был подготовлена 8 часа и 16 минут назад, в 14:00 UTC
Прогноз действительный с 07-го 15 UTC до 07-го 19 UTC
Ветер 20 Узел от западный с порывами до 30 Узел
Видимость 10 км и более
небольшая облачность на высоте 3000 фута
изменения
С 07-го 17 UTC до 07-го 19 UTC
Ветер 10 Узел от западный

TAF: EDHK 071400Z 0715/0719 28020G30KT 9999 FEW030 BECMG 0717/0719 26010KT

Метеонаблюдения и прогнозы для более 4000 аэропортов (сводки METAR и TAF).

Имеющиеся станции представлены на карте желтыми и красными точками.

Чтобы увидеть название станции, наведите на нее мышь.

Затем щелкните, чтобы увидеть метеонаблюдения и метеопрогнозы.

Управление картой: чтобы увеличить масштаб, щелкните зеленые кнопки с черным крестиком; чтобы уменьшить масштаб, щелкните зеленую кнопку с тире; для просмотра соседних карт щелкайте зеленые стрелки.


METAR-TAF: